x

Folly Island, Sc (fbis1) Weather Station

10:00pm - Sat 24th Sep 2016 All times are EDT. -4 hours from GMT.

  • Wind
    6mph, 7mph gusts
  • Air Temp 80°f
  • Sea Pressure 1017.5mb
  • Folly Island, Sc
  • Folly Island, Sc

More Historic Weather Station data

Upgrade to MSW Pro to gain access to the past 30 days of data for over 8000 Wavebouys and Weather Stations around the globe.

Join Pro

Comparision Forecast

View Surf forecast
   
Sat 09/24 10:00pm 6 7 mph 1017.5mb 80f
9:00pm 8 9 mph 1017.2mb 81f
8:00pm 8 9 mph 1016.8mb 80f
7:00pm 8 9 mph 1016.4mb 80f
6:00pm 8 9 mph 1016.2mb 80f
5:00pm 9 10 mph 1016.2mb 81f
4:00pm 7 8 mph 1016.5mb 80f
3:00pm 5 6 mph 1017mb 81f
2:00pm 6 7 mph 1017.6mb 80f
1:00pm 6 7 mph 1018mb 83f
12:00pm 9 11 mph 1018.2mb 81f
11:00am 9 11 mph 1018mb 81f
10:00am 9 11 mph 1017.9mb 77f
9:00am 10 15 mph 1017.4mb 76f
8:00am 7 8 mph 1017.3mb 74f
7:00am 6 8 mph 1016.7mb 74f
6:00am 6 8 mph 1016.2mb 74f
5:00am 5 7 mph 1015.9mb 75f
4:00am 7 8 mph 1015.5mb 75f
3:00am 7 8 mph 1015.5mb 76f
2:00am 10 13 mph 1015.9mb 75f
1:00am 9 10 mph 1015.8mb 76f
12:00am 7 8 mph 1015.9mb 76f
Fri 09/23 11:00pm 9 10 mph 1015.9mb 76f
10:00pm 7 10 mph 1015.6mb 76f
9:00pm 7 9 mph 1015.2mb 76f
8:00pm 10 14 mph 1015.1mb 76f
7:00pm 9 13 mph 1014.8mb 77f
6:00pm 3 5 mph 1014.5mb 80f
5:00pm 5 6 mph 1014.3mb 80f
4:00pm 6 7 mph 1014.5mb 79f
3:00pm 5 7 mph 1014.8mb 80f
2:00pm 8 13 mph 1015.4mb 80f
1:00pm 5 7 mph 1016.1mb 80f
12:00pm 6 8 mph 1016.3mb 78f
11:00am 7 10 mph 1016.3mb 78f
10:00am 6 9 mph 1016.5mb 76f
9:00am 5 7 mph 1016.2mb 75f
8:00am 3 5 mph 1015.9mb 74f
7:00am 5 6 mph 1015.3mb 74f
6:00am 5 7 mph 1015mb 74f
5:00am 3 5 mph 1014.7mb 74f
4:00am 5 7 mph 1014.5mb 74f
3:00am 3 5 mph 1014.6mb 74f
2:00am 1 2 mph 1014.7mb 75f
1:00am 2 3 mph 1014.8mb 75f
12:00am 5 7 mph 1015.1mb 75f
Thu 09/22 11:00pm 2 3 mph 1014.8mb 75f
10:00pm 2
mph
1014.6mb 76f
9:00pm 5 7 mph 1014.2mb 76f
8:00pm 2 3 mph 1013.9mb 77f
7:00pm 2 3 mph 1013.9mb 78f
6:00pm 3 5 mph 1013.7mb 79f
5:00pm 5 6 mph 1013.6mb 79f
4:00pm 5 7 mph 1013.8mb 80f
3:00pm 5 7 mph 1014mb 80f
2:00pm 3 7 mph 1014.4mb 81f
1:00pm 6 10 mph 1015mb 78f
12:00pm 3 6 mph 1015.2mb 78f
11:00am 6 9 mph 1015.4mb 76f
10:00am 8 10 mph 1015.3mb 73f
9:00am 9 11 mph 1015mb 73f
8:00am 9 13 mph 1014.8mb 73f
7:00am 11 14 mph 1014.3mb 73f
6:00am 13 15 mph 1014.2mb 73f
5:00am 10 14 mph 1013.8mb 73f
4:00am 9 11 mph 1013.8mb 73f
3:00am 10 13 mph 1013.8mb 74f
2:00am 9 10 mph 1014.3mb 75f
1:00am 10 11 mph 1014.7mb 75f
12:00am 9 11 mph 1014.9mb 76f
Wed 09/21 11:00pm 7 9 mph 1014.8mb 75f
10:00pm 3 6 mph 1015mb 74f
9:00pm 2 3 mph 1014.5mb 74f
8:00pm 2
mph
1014.1mb 74f
7:00pm 3 7 mph 1014mb 75f
6:00pm 6 9 mph 1013.8mb 77f
5:00pm 5 6 mph 1013.7mb 78f
4:00pm 8 11 mph 1013.8mb 79f
3:00pm 6 10 mph 1014mb 77f
2:00pm 6 8 mph 1014.4mb 81f
1:00pm 5 7 mph 1014.6mb 81f
12:00pm 5 8 mph 1015.6mb 80f
11:00am 5 8 mph 1015.8mb 77f
10:00am 7 11 mph 1015.8mb 77f
9:00am 5 7 mph 1015.8mb 76f
8:00am 7 9 mph 1015.8mb 73f
7:00am 5 8 mph 1015.7mb 73f
6:00am 6 9 mph 1015mb 73f
5:00am 7 10 mph 1014.9mb 73f
4:00am 9 11 mph 1014.9mb 74f